createdAt,value
2019-05-26T00:00:35.347Z,93.66
2019-05-26T00:01:35.342Z,92.94
2019-05-26T00:02:35.344Z,93.92
2019-05-26T00:03:35.318Z,93.45
2019-05-26T00:04:35.303Z,93.55
2019-05-26T00:05:35.303Z,93.66
2019-05-26T00:06:35.291Z,93.41
2019-05-26T00:07:35.321Z,94.07
2019-05-26T00:08:35.319Z,93.86
2019-05-26T00:09:35.290Z,93.04
2019-05-26T00:10:35.244Z,93.25
2019-05-26T00:11:35.278Z,93.04
2019-05-26T00:12:35.221Z,93.15
2019-05-26T00:13:35.205Z,92.94
2019-05-26T00:14:35.199Z,92.94
2019-05-26T00:15:35.200Z,93.25
2019-05-26T00:16:35.253Z,93.25
2019-05-26T00:17:35.162Z,93.71
2019-05-26T00:18:35.155Z,93.25
2019-05-26T00:19:35.164Z,93.25
2019-05-26T00:20:35.135Z,92.74
2019-05-26T00:21:35.122Z,93.25
2019-05-26T00:22:35.139Z,93.25
2019-05-26T00:23:35.106Z,93.35
2019-05-26T00:24:35.092Z,93.35
2019-05-26T00:25:35.174Z,92.69
2019-05-26T00:26:35.069Z,92.53
2019-05-26T00:27:35.056Z,92.53
2019-05-26T00:28:35.122Z,92.53
2019-05-26T00:29:42.017Z,92.63
2019-05-26T00:30:35.020Z,92.83
2019-05-26T00:31:35.018Z,92.53
2019-05-26T00:32:35.004Z,92.74
2019-05-26T00:33:34.993Z,93.15
2019-05-26T00:34:34.989Z,93.25
2019-05-26T00:35:34.972Z,92.74
2019-05-26T00:36:34.983Z,93.25
2019-05-26T00:37:48.340Z,93.04
2019-05-26T00:38:35.947Z,92.83
2019-05-26T00:39:34.929Z,93.15
2019-05-26T00:40:34.917Z,92.94
2019-05-26T00:41:34.902Z,93.04
2019-05-26T00:42:34.914Z,93.04
2019-05-26T00:43:34.892Z,92.63
2019-05-26T00:44:34.873Z,92.83
2019-05-26T00:45:34.862Z,93.04
2019-05-26T00:46:34.847Z,93.25
2019-05-26T00:47:34.839Z,92.83
2019-05-26T00:48:34.833Z,93.04
2019-05-26T00:49:34.825Z,93.04
2019-05-26T00:50:34.810Z,93.25
2019-05-26T00:51:34.792Z,93.04
2019-05-26T00:52:34.790Z,93.04
2019-05-26T00:53:34.786Z,93.35
2019-05-26T00:54:34.761Z,93.25
2019-05-26T00:55:34.757Z,93.25
2019-05-26T00:56:34.748Z,93.25
2019-05-26T00:57:34.793Z,92.83
2019-05-26T00:58:34.766Z,93.35
2019-05-26T00:59:34.710Z,92.94
2019-05-26T01:00:34.772Z,93.04
2019-05-26T01:01:42.605Z,93.25
2019-05-26T01:02:34.669Z,93.15
2019-05-26T01:03:34.658Z,92.74
2019-05-26T01:04:34.679Z,92.83
2019-05-26T01:05:34.644Z,92.74
2019-05-26T01:06:34.674Z,92.74
2019-05-26T01:07:34.679Z,92.53
2019-05-26T01:08:34.608Z,92.74
2019-05-26T01:09:34.608Z,92.74
2019-05-26T01:10:34.624Z,92.94
2019-05-26T01:11:34.571Z,92.74
2019-05-26T01:12:34.569Z,92.74
2019-05-26T01:13:34.592Z,92.74
2019-05-26T01:14:34.544Z,92.43
2019-05-26T01:15:34.581Z,92.83
2019-05-26T01:16:34.533Z,92.12
2019-05-26T01:17:34.519Z,92.63
2019-05-26T01:18:34.509Z,92.22
2019-05-26T01:19:34.538Z,92.12
2019-05-26T01:20:34.540Z,92.74
2019-05-26T01:21:34.470Z,92.83
2019-05-26T01:22:34.467Z,92.28
2019-05-26T01:23:34.532Z,92.53
2019-05-26T01:24:34.455Z,92.43
2019-05-26T01:25:34.463Z,92.53
2019-05-26T01:26:34.419Z,92.63
2019-05-26T01:27:34.405Z,92.63
2019-05-26T01:28:34.396Z,92.43
2019-05-26T01:29:34.463Z,92.49
2019-05-26T01:30:34.370Z,92.18
2019-05-26T01:31:34.405Z,92.74
2019-05-26T01:32:34.355Z,92.32
2019-05-26T01:33:41.318Z,91.82
2019-05-26T01:34:34.329Z,91.61
2019-05-26T01:35:34.316Z,91.61
2019-05-26T01:36:34.309Z,92.08
2019-05-26T01:37:34.313Z,91.71
2019-05-26T01:38:34.288Z,91.82
2019-05-26T01:39:34.279Z,92.02
2019-05-26T01:40:34.271Z,91.91
2019-05-26T01:41:34.263Z,91.87
2019-05-26T01:42:34.281Z,91.91
2019-05-26T01:43:34.232Z,91.71
2019-05-26T01:44:34.216Z,92.12
2019-05-26T01:45:34.201Z,91.97
2019-05-26T01:46:34.197Z,92.18
2019-05-26T01:47:34.205Z,91.20
2019-05-26T01:48:34.198Z,91.20
2019-05-26T01:49:34.167Z,91.36
2019-05-26T01:50:34.160Z,90.75
2019-05-26T01:51:34.190Z,90.54
2019-05-26T01:52:34.131Z,90.95
2019-05-26T01:53:34.137Z,90.84
2019-05-26T01:54:34.181Z,90.48
2019-05-26T01:55:34.098Z,90.84
2019-05-26T01:56:34.089Z,90.89
2019-05-26T01:57:34.076Z,91.50
2019-05-26T01:58:34.065Z,91.05
2019-05-26T01:59:34.172Z,91.16
2019-05-26T02:00:34.044Z,90.75
2019-05-26T02:01:34.036Z,90.75
2019-05-26T02:02:34.022Z,90.99
2019-05-26T02:03:34.014Z,90.75
2019-05-26T02:04:33.997Z,90.75
2019-05-26T02:05:41.200Z,91.05
2019-05-26T02:06:33.984Z,90.64
2019-05-26T02:07:33.972Z,90.75
2019-05-26T02:08:39.335Z,90.84
2019-05-26T02:09:34.946Z,90.95
2019-05-26T02:10:33.943Z,90.79
2019-05-26T02:11:34.118Z,91.30
2019-05-26T02:12:33.925Z,90.44
2019-05-26T02:13:33.900Z,90.64
2019-05-26T02:14:33.892Z,90.89
2019-05-26T02:15:33.892Z,90.54
2019-05-26T02:16:33.929Z,91.30
2019-05-26T02:17:33.876Z,91.20
2019-05-26T02:18:33.848Z,90.89
2019-05-26T02:19:33.914Z,90.58
2019-05-26T02:20:33.827Z,90.58
2019-05-26T02:21:33.811Z,90.99
2019-05-26T02:22:33.842Z,91.09
2019-05-26T02:23:33.842Z,90.99
2019-05-26T02:24:33.788Z,90.48
2019-05-26T02:25:33.776Z,90.84
2019-05-26T02:26:33.806Z,90.84
2019-05-26T02:27:33.744Z,90.79
2019-05-26T02:28:33.746Z,90.58
2019-05-26T02:29:33.728Z,90.89
2019-05-26T02:30:33.787Z,90.89
2019-05-26T02:31:33.708Z,91.26
2019-05-26T02:32:33.706Z,91.46
2019-05-26T02:33:33.690Z,90.89
2019-05-26T02:34:33.682Z,90.95
2019-05-26T02:35:33.663Z,90.58
2019-05-26T02:36:33.721Z,91.26
2019-05-26T02:37:40.721Z,90.89
2019-05-26T02:38:33.634Z,91.40
2019-05-26T02:39:33.613Z,91.61
2019-05-26T02:40:33.608Z,91.20
2019-05-26T02:41:33.595Z,91.30
2019-05-26T02:42:33.600Z,91.40
2019-05-26T02:43:33.585Z,91.91
2019-05-26T02:44:33.560Z,92.22
2019-05-26T02:45:33.558Z,92.22
2019-05-26T02:46:33.540Z,92.22
2019-05-26T02:47:33.595Z,91.61
2019-05-26T02:48:33.544Z,92.08
2019-05-26T02:49:33.530Z,91.50
2019-05-26T02:50:33.553Z,91.82
2019-05-26T02:51:33.493Z,92.02
2019-05-26T02:52:33.482Z,91.91
2019-05-26T02:53:33.480Z,91.56
2019-05-26T02:54:33.483Z,92.32
2019-05-26T02:55:33.461Z,90.79
2019-05-26T02:56:33.457Z,90.84
2019-05-26T02:57:33.423Z,91.50
2019-05-26T02:58:33.414Z,90.95
2019-05-26T02:59:33.425Z,90.54
2019-05-26T03:00:33.401Z,91.09
2019-05-26T03:01:33.380Z,91.20
2019-05-26T03:02:33.405Z,91.40
2019-05-26T03:03:33.360Z,91.40
2019-05-26T03:04:33.351Z,91.61
2019-05-26T03:05:33.379Z,91.46
2019-05-26T03:06:33.333Z,91.36
2019-05-26T03:07:33.310Z,91.56
2019-05-26T03:08:33.315Z,90.58
2019-05-26T03:09:40.271Z,90.99
2019-05-26T03:10:33.283Z,90.75
2019-05-26T03:11:33.293Z,91.36
2019-05-26T03:12:33.261Z,91.77
2019-05-26T03:13:33.278Z,91.36
2019-05-26T03:14:33.250Z,92.02
2019-05-26T03:15:33.231Z,90.95
2019-05-26T03:16:33.254Z,91.20
2019-05-26T03:17:33.206Z,91.71
2019-05-26T03:18:33.205Z,92.12
2019-05-26T03:19:33.192Z,91.97
2019-05-26T03:20:33.175Z,91.20
2019-05-26T03:21:33.185Z,91.91
2019-05-26T03:22:33.159Z,91.87
2019-05-26T03:23:33.141Z,91.91
2019-05-26T03:24:33.133Z,91.40
2019-05-26T03:25:33.181Z,91.09
2019-05-26T03:26:33.172Z,91.50
2019-05-26T03:27:33.103Z,91.56
2019-05-26T03:28:33.088Z,92.02
2019-05-26T03:29:33.097Z,91.91
2019-05-26T03:30:33.067Z,91.67
2019-05-26T03:31:33.069Z,91.61
2019-05-26T03:32:33.098Z,91.82
2019-05-26T03:33:33.042Z,91.82
2019-05-26T03:34:33.131Z,91.71
2019-05-26T03:35:33.069Z,92.12
2019-05-26T03:36:33.006Z,91.71
2019-05-26T03:37:32.994Z,91.61
2019-05-26T03:38:32.990Z,91.61
2019-05-26T03:39:44.466Z,91.50
2019-05-26T03:40:34.024Z,91.82
2019-05-26T03:41:39.949Z,91.82
2019-05-26T03:42:32.938Z,91.91
2019-05-26T03:43:32.968Z,90.99
2019-05-26T03:44:32.914Z,91.50
2019-05-26T03:45:32.904Z,92.02
2019-05-26T03:46:32.897Z,92.22
2019-05-26T03:47:32.897Z,91.82
2019-05-26T03:48:32.872Z,91.61
2019-05-26T03:49:32.878Z,91.91
2019-05-26T03:50:32.861Z,91.77
2019-05-26T03:51:32.840Z,91.91
2019-05-26T03:52:32.821Z,91.71
2019-05-26T03:53:32.817Z,91.50
2019-05-26T03:54:32.882Z,92.02
2019-05-26T03:55:32.841Z,91.91
2019-05-26T03:56:32.789Z,91.61
2019-05-26T03:57:32.830Z,92.12
2019-05-26T03:58:32.767Z,91.71
2019-05-26T03:59:32.747Z,92.22
2019-05-26T04:00:32.740Z,91.91
2019-05-26T04:01:32.738Z,91.61
2019-05-26T04:02:32.798Z,92.12
2019-05-26T04:03:32.708Z,91.50
2019-05-26T04:04:32.700Z,91.50
2019-05-26T04:05:32.725Z,91.61
2019-05-26T04:06:32.670Z,91.09
2019-05-26T04:07:32.672Z,92.12
2019-05-26T04:08:32.701Z,91.50
2019-05-26T04:09:32.647Z,90.89
2019-05-26T04:10:32.634Z,90.99
2019-05-26T04:11:32.631Z,90.79
2019-05-26T04:12:32.605Z,91.40
2019-05-26T04:13:39.578Z,91.40
2019-05-26T04:14:32.583Z,90.69
2019-05-26T04:15:32.583Z,91.30
2019-05-26T04:16:32.614Z,91.30
2019-05-26T04:17:32.557Z,90.89
2019-05-26T04:18:32.559Z,90.99
2019-05-26T04:19:32.537Z,90.79
2019-05-26T04:20:32.522Z,91.03
2019-05-26T04:21:32.519Z,90.48
2019-05-26T04:22:32.521Z,90.89
2019-05-26T04:23:32.497Z,90.93
2019-05-26T04:24:32.523Z,90.79
2019-05-26T04:25:32.461Z,91.20
2019-05-26T04:26:32.450Z,90.79
2019-05-26T04:27:32.455Z,90.99
2019-05-26T04:28:32.434Z,90.07
2019-05-26T04:29:32.426Z,89.87
2019-05-26T04:30:32.487Z,90.17
2019-05-26T04:31:32.408Z,89.45
2019-05-26T04:32:32.431Z,88.94
2019-05-26T04:33:32.421Z,89.36
2019-05-26T04:34:32.366Z,89.97
2019-05-26T04:35:32.351Z,89.56
2019-05-26T04:36:32.347Z,88.94
2019-05-26T04:37:32.340Z,88.64
2019-05-26T04:38:32.493Z,88.64
2019-05-26T04:39:32.311Z,88.12
2019-05-26T04:40:32.303Z,88.33
2019-05-26T04:41:32.302Z,88.43
2019-05-26T04:42:32.281Z,88.43
2019-05-26T04:43:32.290Z,87.37
2019-05-26T04:44:32.317Z,87.20
2019-05-26T04:45:39.235Z,87.30
2019-05-26T04:46:32.232Z,87.16
2019-05-26T04:47:32.227Z,87.26
2019-05-26T04:48:32.222Z,87.57
2019-05-26T04:49:37.051Z,86.85
2019-05-26T04:50:33.233Z,86.96
2019-05-26T04:51:32.191Z,87.57
2019-05-26T04:52:32.187Z,87.43
2019-05-26T04:53:32.162Z,85.93
2019-05-26T04:54:32.148Z,86.65
2019-05-26T04:55:32.145Z,86.65
2019-05-26T04:56:32.148Z,86.55
2019-05-26T04:57:32.164Z,86.85
2019-05-26T04:58:32.114Z,86.51
2019-05-26T04:59:32.111Z,86.75
2019-05-26T05:00:32.137Z,86.51
2019-05-26T05:01:32.084Z,86.34
2019-05-26T05:02:32.071Z,86.34
2019-05-26T05:03:32.055Z,86.14
2019-05-26T05:04:32.046Z,85.72
2019-05-26T05:05:32.095Z,86.20
2019-05-26T05:06:32.026Z,85.69
2019-05-26T05:07:32.044Z,85.96
2019-05-26T05:08:32.002Z,85.58
2019-05-26T05:09:31.991Z,84.52
2019-05-26T05:10:41.747Z,84.63
2019-05-26T05:11:33.044Z,84.52
2019-05-26T05:12:31.953Z,84.72
2019-05-26T05:13:31.942Z,84.72
2019-05-26T05:14:31.930Z,83.36
2019-05-26T05:15:31.922Z,82.95
2019-05-26T05:16:31.956Z,82.64
2019-05-26T05:17:38.879Z,82.43
2019-05-26T05:18:31.886Z,82.84
2019-05-26T05:19:31.885Z,82.40
2019-05-26T05:20:31.867Z,82.09
2019-05-26T05:21:31.853Z,81.07
2019-05-26T05:22:31.866Z,81.38
2019-05-26T05:23:31.834Z,81.41
2019-05-26T05:24:31.869Z,81.62
2019-05-26T05:25:31.812Z,81.51
2019-05-26T05:26:31.823Z,81.10
2019-05-26T05:27:31.845Z,81.21
2019-05-26T05:28:31.796Z,82.34
2019-05-26T05:29:31.783Z,82.64
2019-05-26T05:30:31.762Z,82.95
2019-05-26T05:31:31.747Z,81.93
2019-05-26T05:32:32.936Z,81.38
2019-05-26T05:33:31.798Z,81.41
2019-05-26T05:34:31.713Z,81.82
2019-05-26T05:35:31.703Z,81.58
2019-05-26T05:36:31.693Z,81.38
2019-05-26T05:37:31.679Z,80.52
2019-05-26T05:38:31.671Z,80.32
2019-05-26T05:39:31.767Z,80.42
2019-05-26T05:40:31.653Z,80.01
2019-05-26T05:41:31.640Z,80.42
2019-05-26T05:42:31.633Z,79.60
2019-05-26T05:43:31.626Z,79.70
2019-05-26T05:44:31.604Z,80.01
2019-05-26T05:45:31.643Z,80.21
2019-05-26T05:46:31.585Z,80.83
2019-05-26T05:47:31.582Z,81.13
2019-05-26T05:48:31.559Z,79.91
2019-05-26T05:49:38.537Z,79.60
2019-05-26T05:50:31.544Z,80.01
2019-05-26T05:51:31.531Z,79.64
2019-05-26T05:52:31.520Z,80.15
2019-05-26T05:53:31.501Z,79.84
2019-05-26T05:54:31.529Z,81.07
2019-05-26T05:55:31.480Z,80.87
2019-05-26T05:56:31.525Z,81.17
2019-05-26T05:57:31.465Z,81.79
2019-05-26T05:58:31.449Z,83.05
2019-05-26T05:59:31.495Z,82.84
2019-05-26T06:00:31.453Z,81.41
2019-05-26T06:01:31.421Z,83.05
2019-05-26T06:02:31.407Z,82.84
2019-05-26T06:03:31.399Z,81.62
2019-05-26T06:04:31.442Z,82.23
2019-05-26T06:05:31.383Z,83.05
2019-05-26T06:06:31.396Z,82.64
2019-05-26T06:07:31.349Z,81.41
2019-05-26T06:08:31.346Z,82.43
2019-05-26T06:09:31.337Z,82.23
2019-05-26T06:10:31.335Z,82.84
2019-05-26T06:11:31.374Z,82.95
2019-05-26T06:12:31.310Z,82.43
2019-05-26T06:13:31.287Z,82.20
2019-05-26T06:14:31.357Z,81.31
2019-05-26T06:15:31.264Z,81.27
2019-05-26T06:16:31.299Z,83.42
2019-05-26T06:17:31.279Z,81.95
2019-05-26T06:18:31.229Z,82.77
2019-05-26T06:19:31.223Z,81.40
2019-05-26T06:20:31.209Z,80.79
2019-05-26T06:21:39.865Z,80.99
2019-05-26T06:22:31.230Z,80.79
2019-05-26T06:23:31.175Z,80.14
2019-05-26T06:24:31.168Z,79.43
2019-05-26T06:25:31.164Z,79.73
2019-05-26T06:26:31.168Z,79.22
2019-05-26T06:27:31.138Z,79.02
2019-05-26T06:28:31.136Z,80.14
2019-05-26T06:29:31.121Z,79.12
2019-05-26T06:30:31.103Z,78.30
2019-05-26T06:31:31.098Z,78.30
2019-05-26T06:32:31.086Z,78.09
2019-05-26T06:33:31.078Z,78.67
2019-05-26T06:34:31.113Z,78.77
2019-05-26T06:35:32.837Z,77.25
2019-05-26T06:36:31.041Z,76.84
2019-05-26T06:37:31.024Z,76.50
2019-05-26T06:38:31.082Z,76.50
2019-05-26T06:39:31.005Z,76.19
2019-05-26T06:40:31.008Z,77.72
2019-05-26T06:41:33.781Z,76.56
2019-05-26T06:42:31.013Z,76.35
2019-05-26T06:43:30.958Z,75.78
2019-05-26T06:44:30.953Z,75.23
2019-05-26T06:45:31.013Z,74.32
2019-05-26T06:46:30.935Z,75.23
2019-05-26T06:47:30.924Z,75.13
2019-05-26T06:48:30.905Z,74.73
2019-05-26T06:49:30.922Z,75.13
2019-05-26T06:50:30.939Z,74.28
2019-05-26T06:51:30.876Z,74.58
2019-05-26T06:52:30.868Z,74.58
2019-05-26T06:53:38.392Z,74.15
2019-05-26T06:54:30.844Z,74.35
2019-05-26T06:55:30.838Z,72.31
2019-05-26T06:56:30.825Z,73.80
2019-05-26T06:57:30.809Z,72.89
2019-05-26T06:58:30.804Z,73.19
2019-05-26T06:59:30.787Z,71.97
2019-05-26T07:00:30.814Z,72.69
2019-05-26T07:01:30.793Z,73.91
2019-05-26T07:02:30.757Z,76.15
2019-05-26T07:03:30.797Z,74.82
2019-05-26T07:04:30.735Z,73.84
2019-05-26T07:05:30.730Z,74.18
2019-05-26T07:06:30.717Z,73.57
2019-05-26T07:07:30.722Z,73.88
2019-05-26T07:08:30.716Z,72.58
2019-05-26T07:09:30.681Z,74.28
2019-05-26T07:10:30.674Z,73.97
2019-05-26T07:11:30.728Z,74.58
2019-05-26T07:12:30.651Z,74.79
2019-05-26T07:13:30.663Z,74.58
2019-05-26T07:14:30.677Z,75.40
2019-05-26T07:15:30.619Z,74.28
2019-05-26T07:16:37.946Z,74.49
2019-05-26T07:17:31.614Z,74.69
2019-05-26T07:18:30.600Z,74.49
2019-05-26T07:19:30.573Z,74.99
2019-05-26T07:20:30.608Z,74.58
2019-05-26T07:21:30.552Z,74.28
2019-05-26T07:22:30.550Z,74.32
2019-05-26T07:23:30.565Z,75.64
2019-05-26T07:24:30.520Z,74.52
2019-05-26T07:25:37.488Z,74.52
2019-05-26T07:26:30.499Z,76.39
2019-05-26T07:27:30.482Z,74.45
2019-05-26T07:28:30.475Z,75.20
2019-05-26T07:29:30.485Z,76.29
2019-05-26T07:30:30.457Z,76.19
2019-05-26T07:31:30.446Z,75.07
2019-05-26T07:32:30.473Z,74.35
2019-05-26T07:33:30.427Z,74.55
2019-05-26T07:34:30.430Z,74.96
2019-05-26T07:35:33.071Z,74.35
2019-05-26T07:36:30.412Z,74.35
2019-05-26T07:37:30.377Z,72.82
2019-05-26T07:38:30.371Z,73.13
2019-05-26T07:39:30.359Z,72.31
2019-05-26T07:40:30.386Z,73.23
2019-05-26T07:41:30.362Z,73.33
2019-05-26T07:42:30.328Z,73.36
2019-05-26T07:43:30.319Z,74.08
2019-05-26T07:44:30.299Z,74.38
2019-05-26T07:45:30.294Z,74.05
2019-05-26T07:46:30.295Z,75.10
2019-05-26T07:47:30.330Z,74.05
2019-05-26T07:48:30.262Z,73.03
2019-05-26T07:49:30.256Z,73.43
2019-05-26T07:50:30.239Z,72.41
2019-05-26T07:51:30.264Z,73.94
2019-05-26T07:52:30.213Z,73.03
2019-05-26T07:53:30.274Z,73.74
2019-05-26T07:54:30.198Z,72.79
2019-05-26T07:55:30.188Z,71.87
2019-05-26T07:56:30.177Z,72.79
2019-05-26T07:57:39.132Z,71.46
2019-05-26T07:58:30.155Z,72.86
2019-05-26T07:59:30.134Z,71.02
2019-05-26T08:00:30.126Z,71.23
2019-05-26T08:01:36.056Z,72.24
2019-05-26T08:02:31.119Z,71.23
2019-05-26T08:03:30.103Z,71.77
2019-05-26T08:04:30.175Z,71.73
2019-05-26T08:05:30.080Z,72.86
2019-05-26T08:06:30.060Z,72.45
2019-05-26T08:07:30.058Z,71.19
2019-05-26T08:08:30.056Z,71.09
2019-05-26T08:09:30.119Z,71.70
2019-05-26T08:10:30.021Z,70.48
2019-05-26T08:11:30.009Z,70.68
2019-05-26T08:12:30.823Z,71.56
2019-05-26T08:13:30.020Z,71.77
2019-05-26T08:14:29.975Z,70.45
2019-05-26T08:15:29.968Z,70.14
2019-05-26T08:16:29.960Z,71.06
2019-05-26T08:17:29.993Z,70.65
2019-05-26T08:18:29.929Z,69.93
2019-05-26T08:19:29.930Z,69.70
2019-05-26T08:20:29.909Z,69.70
2019-05-26T08:21:29.894Z,70.92
2019-05-26T08:22:29.890Z,68.85
2019-05-26T08:23:29.968Z,69.36
2019-05-26T08:24:29.887Z,69.67
2019-05-26T08:25:29.864Z,69.26
2019-05-26T08:26:29.848Z,70.58
2019-05-26T08:27:29.838Z,69.77
2019-05-26T08:28:29.823Z,67.91
2019-05-26T08:29:37.002Z,69.06
2019-05-26T08:30:29.804Z,69.84
2019-05-26T08:31:29.789Z,70.38
2019-05-26T08:32:29.783Z,67.94
2019-05-26T08:33:29.772Z,67.94
2019-05-26T08:34:29.764Z,68.24
2019-05-26T08:35:29.758Z,69.06
2019-05-26T08:36:29.769Z,68.11
2019-05-26T08:37:29.747Z,67.19
2019-05-26T08:38:29.722Z,68.21
2019-05-26T08:39:29.764Z,68.08
2019-05-26T08:40:29.729Z,66.79
2019-05-26T08:41:29.681Z,67.94
2019-05-26T08:42:43.799Z,69.26
2019-05-26T08:43:30.662Z,71.09
2019-05-26T08:44:29.700Z,69.36
2019-05-26T08:45:29.635Z,69.26
2019-05-26T08:46:29.674Z,69.70
2019-05-26T08:47:29.614Z,70.51
2019-05-26T08:48:29.603Z,70.45
2019-05-26T08:49:29.595Z,70.04
2019-05-26T08:50:29.587Z,69.84
2019-05-26T08:51:29.624Z,69.73
2019-05-26T08:52:29.581Z,69.76
2019-05-26T08:53:29.595Z,69.67
2019-05-26T08:54:29.549Z,69.15
2019-05-26T08:55:29.532Z,69.46
2019-05-26T08:56:29.561Z,69.32
2019-05-26T08:57:29.546Z,68.51
2019-05-26T08:58:29.644Z,68.07
2019-05-26T08:59:29.502Z,67.16
2019-05-26T09:00:29.474Z,67.63
2019-05-26T09:01:36.439Z,68.24
2019-05-26T09:02:29.509Z,66.28
2019-05-26T09:03:29.478Z,66.49
2019-05-26T09:04:29.435Z,65.54
2019-05-26T09:05:29.424Z,66.72
2019-05-26T09:06:29.417Z,64.59
2019-05-26T09:07:29.401Z,65.20
2019-05-26T09:08:29.470Z,65.91
2019-05-26T09:09:29.395Z,67.54
2019-05-26T09:10:29.369Z,66.39
2019-05-26T09:11:29.370Z,66.69
2019-05-26T09:12:29.347Z,65.30
2019-05-26T09:13:29.389Z,66.83
2019-05-26T09:14:29.326Z,65.07
2019-05-26T09:15:29.329Z,65.17
2019-05-26T09:16:29.370Z,65.71
2019-05-26T09:17:29.292Z,66.02
2019-05-26T09:18:29.277Z,66.80
2019-05-26T09:19:29.275Z,65.88
2019-05-26T09:20:29.297Z,65.17
2019-05-26T09:21:29.243Z,65.14
2019-05-26T09:22:29.259Z,64.94
2019-05-26T09:23:29.226Z,65.04
2019-05-26T09:24:29.221Z,63.52
2019-05-26T09:25:29.201Z,63.59
2019-05-26T09:26:29.201Z,61.49
2019-05-26T09:27:29.178Z,62.91
2019-05-26T09:28:29.219Z,62.88
2019-05-26T09:29:29.165Z,64.61
2019-05-26T09:30:29.171Z,61.36
2019-05-26T09:31:29.146Z,61.66
2019-05-26T09:32:29.142Z,61.56
2019-05-26T09:33:36.097Z,61.76
2019-05-26T09:34:29.106Z,62.98
2019-05-26T09:35:29.093Z,62.27
2019-05-26T09:36:29.089Z,61.56
2019-05-26T09:37:29.067Z,62.17
2019-05-26T09:38:29.059Z,62.27
2019-05-26T09:39:29.051Z,62.68
2019-05-26T09:40:29.107Z,63.69
2019-05-26T09:41:29.082Z,63.59
2019-05-26T09:42:29.026Z,63.56
2019-05-26T09:43:29.014Z,63.66
2019-05-26T09:44:29.003Z,62.24
2019-05-26T09:45:29.022Z,62.34
2019-05-26T09:46:28.984Z,61.53
2019-05-26T09:47:29.011Z,61.97
2019-05-26T09:48:28.984Z,62.51
2019-05-26T09:49:28.942Z,63.29
2019-05-26T09:50:28.929Z,63.29
2019-05-26T09:51:28.915Z,63.56
2019-05-26T09:52:28.905Z,63.06
2019-05-26T09:53:28.975Z,63.89
2019-05-26T09:54:28.883Z,64.37
2019-05-26T09:55:28.874Z,63.35
2019-05-26T09:56:28.866Z,63.86
2019-05-26T09:57:28.853Z,64.70
2019-05-26T09:58:28.878Z,63.79
2019-05-26T09:59:28.870Z,64.00
2019-05-26T10:00:28.819Z,64.94
2019-05-26T10:01:28.813Z,65.95
2019-05-26T10:02:28.804Z,66.97
2019-05-26T10:03:28.788Z,65.14
2019-05-26T10:04:28.824Z,64.53
2019-05-26T10:05:36.526Z,65.58
2019-05-26T10:06:28.755Z,64.67
2019-05-26T10:07:28.744Z,65.07
2019-05-26T10:08:28.734Z,65.99
2019-05-26T10:09:28.737Z,64.46
2019-05-26T10:10:28.736Z,65.41
2019-05-26T10:11:28.708Z,65.07
2019-05-26T10:12:28.732Z,65.78
2019-05-26T10:13:31.729Z,63.75
2019-05-26T10:14:28.672Z,63.04
2019-05-26T10:15:28.672Z,63.95
2019-05-26T10:16:28.692Z,63.55
2019-05-26T10:17:28.663Z,64.06
2019-05-26T10:18:28.621Z,63.85
2019-05-26T10:19:28.615Z,64.64
2019-05-26T10:20:28.620Z,62.68
2019-05-26T10:21:28.596Z,62.60
2019-05-26T10:22:28.613Z,61.16
2019-05-26T10:23:28.574Z,61.66
2019-05-26T10:24:28.557Z,61.46
2019-05-26T10:25:28.590Z,61.46
2019-05-26T10:26:28.536Z,61.16
2019-05-26T10:27:28.531Z,60.95
2019-05-26T10:28:28.541Z,61.16
2019-05-26T10:29:28.552Z,61.87
2019-05-26T10:30:28.491Z,61.23
2019-05-26T10:31:28.497Z,61.23
2019-05-26T10:32:28.476Z,61.23
2019-05-26T10:33:28.468Z,61.23
2019-05-26T10:34:28.448Z,60.28
2019-05-26T10:35:28.464Z,61.68
2019-05-26T10:36:28.507Z,60.77
2019-05-26T10:37:35.558Z,59.95
2019-05-26T10:38:28.416Z,60.77
2019-05-26T10:39:28.394Z,59.95
2019-05-26T10:40:28.386Z,58.94
2019-05-26T10:41:28.388Z,59.17
2019-05-26T10:42:28.412Z,60.36
2019-05-26T10:43:28.403Z,59.75
2019-05-26T10:44:28.341Z,59.75
2019-05-26T10:45:28.394Z,60.77
2019-05-26T10:46:28.326Z,61.10
2019-05-26T10:47:28.313Z,62.21
2019-05-26T10:48:28.311Z,63.66
2019-05-26T10:49:28.287Z,63.66
2019-05-26T10:50:28.320Z,64.47
2019-05-26T10:51:28.265Z,64.50
2019-05-26T10:52:28.307Z,63.59
2019-05-26T10:53:28.247Z,63.49
2019-05-26T10:54:28.232Z,63.76
2019-05-26T10:55:28.230Z,65.28
2019-05-26T10:56:28.226Z,65.05
2019-05-26T10:57:28.269Z,64.95
2019-05-26T10:58:28.207Z,63.70
2019-05-26T10:59:28.238Z,63.70
2019-05-26T11:00:28.165Z,61.47
2019-05-26T11:01:28.160Z,62.49
2019-05-26T11:02:28.153Z,60.63
2019-05-26T11:03:28.221Z,59.75
2019-05-26T11:04:28.126Z,59.34
2019-05-26T11:05:28.116Z,59.65
2019-05-26T11:06:28.109Z,59.63
2019-05-26T11:07:28.089Z,61.14
2019-05-26T11:08:28.102Z,59.92
2019-05-26T11:09:35.089Z,59.01
2019-05-26T11:10:28.062Z,58.41
2019-05-26T11:11:28.054Z,58.34
2019-05-26T11:12:28.038Z,58.41
2019-05-26T11:13:28.044Z,58.20
2019-05-26T11:14:28.060Z,58.31
2019-05-26T11:15:28.005Z,59.22
2019-05-26T11:16:28.001Z,59.05
2019-05-26T11:17:28.030Z,59.12
2019-05-26T11:18:27.976Z,58.61
2019-05-26T11:19:27.967Z,56.48
2019-05-26T11:20:27.986Z,57.32
2019-05-26T11:21:27.990Z,59.55
2019-05-26T11:22:27.933Z,58.84
2019-05-26T11:23:27.926Z,59.14
2019-05-26T11:24:27.909Z,57.53
2019-05-26T11:25:27.912Z,58.84
2019-05-26T11:26:27.910Z,59.25
2019-05-26T11:27:27.885Z,59.42
2019-05-26T11:28:27.863Z,59.05
2019-05-26T11:29:27.854Z,58.20
2019-05-26T11:30:27.872Z,58.31
2019-05-26T11:31:27.834Z,59.55
2019-05-26T11:32:27.894Z,58.74
2019-05-26T11:33:27.822Z,57.45
2019-05-26T11:34:27.806Z,56.64
2019-05-26T11:35:27.786Z,58.16
2019-05-26T11:36:27.801Z,57.96
2019-05-26T11:37:27.767Z,58.26
2019-05-26T11:38:27.792Z,59.07
2019-05-26T11:39:27.743Z,58.36
2019-05-26T11:40:27.737Z,59.27
2019-05-26T11:41:36.644Z,59.17
2019-05-26T11:42:27.712Z,59.34
2019-05-26T11:43:27.701Z,59.58
2019-05-26T11:44:27.693Z,59.38
2019-05-26T11:45:27.682Z,59.45
2019-05-26T11:46:27.685Z,58.26
2019-05-26T11:47:27.674Z,58.97
2019-05-26T11:48:27.648Z,59.91
2019-05-26T11:49:27.643Z,60.44
2019-05-26T11:50:27.630Z,60.24
2019-05-26T11:51:27.655Z,60.31
2019-05-26T11:52:27.623Z,60.14
2019-05-26T11:53:27.613Z,60.85
2019-05-26T11:54:27.638Z,61.16
2019-05-26T11:55:27.971Z,60.62
2019-05-26T11:56:27.560Z,62.04
2019-05-26T11:57:27.553Z,62.95
2019-05-26T11:58:27.586Z,62.34
2019-05-26T11:59:27.563Z,62.54
2019-05-26T12:00:27.549Z,62.98
2019-05-26T12:01:27.514Z,61.43
2019-05-26T12:02:27.499Z,61.59
2019-05-26T12:03:27.487Z,61.59
2019-05-26T12:04:27.550Z,62.30
2019-05-26T12:05:27.524Z,62.30
2019-05-26T12:06:27.449Z,63.21
2019-05-26T12:07:27.456Z,62.81
2019-05-26T12:08:27.439Z,62.20
2019-05-26T12:09:27.419Z,62.71
2019-05-26T12:10:27.429Z,63.62
2019-05-26T12:11:27.444Z,63.62
2019-05-26T12:12:27.409Z,62.37
2019-05-26T12:13:36.771Z,62.78
2019-05-26T12:14:34.860Z,63.01
2019-05-26T12:15:28.353Z,63.21
2019-05-26T12:16:28.921Z,63.08
2019-05-26T12:17:27.335Z,64.13
2019-05-26T12:18:27.323Z,62.51
2019-05-26T12:19:27.344Z,62.74
2019-05-26T12:20:27.380Z,62.30
2019-05-26T12:21:27.289Z,63.65
2019-05-26T12:22:27.285Z,63.14
2019-05-26T12:23:27.336Z,62.74
2019-05-26T12:24:27.257Z,63.37
2019-05-26T12:25:27.257Z,63.88
2019-05-26T12:26:27.257Z,63.78
2019-05-26T12:27:27.232Z,64.49
2019-05-26T12:28:27.299Z,65.94
2019-05-26T12:29:27.209Z,65.41
2019-05-26T12:30:27.197Z,65.41
2019-05-26T12:31:27.185Z,64.83
2019-05-26T12:32:27.181Z,66.12
2019-05-26T12:33:27.163Z,65.54
2019-05-26T12:34:27.198Z,64.62
2019-05-26T12:35:27.152Z,64.52
2019-05-26T12:36:27.170Z,64.93
2019-05-26T12:37:27.122Z,66.46
2019-05-26T12:38:27.119Z,66.55
2019-05-26T12:39:27.103Z,66.08
2019-05-26T12:40:27.112Z,66.79
2019-05-26T12:41:27.080Z,66.79
2019-05-26T12:42:27.085Z,66.99
2019-05-26T12:43:27.057Z,66.38
2019-05-26T12:44:27.044Z,65.67
2019-05-26T12:45:34.662Z,65.09
2019-05-26T12:46:27.020Z,66.00
2019-05-26T12:47:27.006Z,66.41
2019-05-26T12:48:27.010Z,66.52
2019-05-26T12:49:27.959Z,65.94
2019-05-26T12:50:26.987Z,67.05
2019-05-26T12:51:26.975Z,69.49
2019-05-26T12:52:26.955Z,68.38